sensor_id;sensor_type;location;lat;lon;timestamp;pressure;altitude;pressure_sealevel;temperature;humidity
74613;BME280;63119;51.788;8.824;2023-02-28T00:01:31;101491.16;;;0.49;69.35
74613;BME280;63119;51.788;8.824;2023-02-28T00:03:56;101494.63;;;0.49;69.07
74613;BME280;63119;51.788;8.824;2023-02-28T00:06:22;101488.50;;;0.64;69.61
74613;BME280;63119;51.788;8.824;2023-02-28T00:08:49;101486.78;;;0.60;69.32
74613;BME280;63119;51.788;8.824;2023-02-28T00:11:15;101491.09;;;0.66;68.99
74613;BME280;63119;51.788;8.824;2023-02-28T00:13:42;101489.34;;;0.74;69.15
74613;BME280;63119;51.788;8.824;2023-02-28T00:16:11;101488.50;;;0.64;68.78
74613;BME280;63119;51.788;8.824;2023-02-28T00:18:38;101489.31;;;0.77;68.52
74613;BME280;63119;51.788;8.824;2023-02-28T00:21:04;101491.13;;;0.60;69.46
74613;BME280;63119;51.788;8.824;2023-02-28T00:23:29;101488.47;;;0.70;68.79
74613;BME280;63119;51.788;8.824;2023-02-28T00:25:55;101486.75;;;0.68;69.46
74613;BME280;63119;51.788;8.824;2023-02-28T00:28:20;101481.50;;;0.77;68.99
74613;BME280;63119;51.788;8.824;2023-02-28T00:30:45;101483.25;;;0.73;69.12
74613;BME280;63119;51.788;8.824;2023-02-28T00:33:11;101477.19;;;0.76;69.77
74613;BME280;63119;51.788;8.824;2023-02-28T00:35:36;101479.78;;;0.79;68.74
74613;BME280;63119;51.788;8.824;2023-02-28T00:38:02;101484.13;;;0.71;69.34
74613;BME280;63119;51.788;8.824;2023-02-28T00:40:27;101485.88;;;0.70;69.42
74613;BME280;63119;51.788;8.824;2023-02-28T00:42:53;101480.59;;;0.82;68.89
74613;BME280;63119;51.788;8.824;2023-02-28T00:45:18;101478.88;;;0.84;68.40
74613;BME280;63119;51.788;8.824;2023-02-28T00:47:44;101482.38;;;0.77;68.99
74613;BME280;63119;51.788;8.824;2023-02-28T00:50:09;101477.19;;;0.76;68.10
74613;BME280;63119;51.788;8.824;2023-02-28T00:52:35;101480.63;;;0.84;67.73
74613;BME280;63119;51.788;8.824;2023-02-28T00:55:00;101481.47;;;0.84;67.17
74613;BME280;63119;51.788;8.824;2023-02-28T00:57:25;101489.34;;;0.75;67.77
74613;BME280;63119;51.788;8.824;2023-02-28T00:59:51;101487.59;;;0.76;67.94
74613;BME280;63119;51.788;8.824;2023-02-28T01:02:19;101486.78;;;0.66;67.48
74613;BME280;63119;51.788;8.824;2023-02-28T01:04:45;101478.06;;;0.67;65.50
74613;BME280;63119;51.788;8.824;2023-02-28T01:07:11;101478.09;;;0.60;65.90
74613;BME280;63119;51.788;8.824;2023-02-28T01:09:36;101482.47;;;0.56;65.12
74613;BME280;63119;51.788;8.824;2023-02-28T01:12:01;101485.03;;;0.62;64.85
74613;BME280;63119;51.788;8.824;2023-02-28T01:14:26;101474.66;;;0.56;65.41
74613;BME280;63119;51.788;8.824;2023-02-28T01:16:52;101480.72;;;0.53;65.70
74613;BME280;63119;51.788;8.824;2023-02-28T01:19:17;101475.53;;;0.50;65.56
74613;BME280;63119;51.788;8.824;2023-02-28T01:21:42;101479.91;;;0.41;66.83
74613;BME280;63119;51.788;8.824;2023-02-28T01:24:08;101477.34;;;0.27;67.02
74613;BME280;63119;51.788;8.824;2023-02-28T01:26:33;101475.59;;;0.28;67.53
74613;BME280;63119;51.788;8.824;2023-02-28T01:28:58;101472.13;;;0.26;67.69
74613;BME280;63119;51.788;8.824;2023-02-28T01:31:24;101481.72;;;0.15;68.23
74613;BME280;63119;51.788;8.824;2023-02-28T01:33:49;101476.50;;;0.06;68.88
74613;BME280;63119;51.788;8.824;2023-02-28T01:36:18;101480.84;;;0.08;68.78
74613;BME280;63119;51.788;8.824;2023-02-28T01:38:44;101483.44;;;-0.03;69.53
74613;BME280;63119;51.788;8.824;2023-02-28T01:41:15;101478.25;;;-0.18;70.35
74613;BME280;63119;51.788;8.824;2023-02-28T01:46:09;101486.94;;;-0.35;70.59
74613;BME280;63119;51.788;8.824;2023-02-28T01:48:42;101477.38;;;-0.42;71.56
74613;BME280;63119;51.788;8.824;2023-02-28T01:51:15;101478.25;;;-0.45;71.65
74613;BME280;63119;51.788;8.824;2023-02-28T01:53:47;101481.72;;;-0.55;70.18
74613;BME280;63119;51.788;8.824;2023-02-28T01:56:18;101473.94;;;-0.61;69.78
74613;BME280;63119;51.788;8.824;2023-02-28T01:58:47;101480.00;;;-0.41;69.33
74613;BME280;63119;51.788;8.824;2023-02-28T02:01:13;101479.97;;;-0.61;69.60
74613;BME280;63119;51.788;8.824;2023-02-28T02:03:49;101476.53;;;-0.49;69.07
74613;BME280;63119;51.788;8.824;2023-02-28T02:06:25;101476.53;;;-0.47;69.16
74613;BME280;63119;51.788;8.824;2023-02-28T02:08:50;101478.25;;;-0.59;69.21
74613;BME280;63119;51.788;8.824;2023-02-28T02:11:19;101476.53;;;-0.58;68.19
74613;BME280;63119;51.788;8.824;2023-02-28T02:16:37;101471.31;;;-0.67;69.06
74613;BME280;63119;51.788;8.824;2023-02-28T02:25:02;101473.94;;;-0.58;68.42
74613;BME280;63119;51.788;8.824;2023-02-28T02:30:20;101479.09;;;-0.63;68.73
74613;BME280;63119;51.788;8.824;2023-02-28T02:35:31;101473.03;;;-0.72;68.46
74613;BME280;63119;51.788;8.824;2023-02-28T02:38:10;101476.50;;;-0.67;68.03
74613;BME280;63119;51.788;8.824;2023-02-28T02:40:44;101469.56;;;-0.68;68.40
74613;BME280;63119;51.788;8.824;2023-02-28T02:43:16;101468.69;;;-0.72;68.80
74613;BME280;63119;51.788;8.824;2023-02-28T02:45:56;101464.34;;;-0.73;68.96
74613;BME280;63119;51.788;8.824;2023-02-28T02:48:30;101462.59;;;-0.95;69.27
74613;BME280;63119;51.788;8.824;2023-02-28T02:50:58;101464.28;;;-1.06;70.43
74613;BME280;63119;51.788;8.824;2023-02-28T02:53:29;101468.63;;;-1.06;70.67
74613;BME280;63119;51.788;8.824;2023-02-28T02:55:55;101461.72;;;-0.98;70.68
74613;BME280;63119;51.788;8.824;2023-02-28T02:58:26;101473.78;;;-1.14;70.59
74613;BME280;63119;51.788;8.824;2023-02-28T03:00:57;101459.91;;;-1.24;71.58
74613;BME280;63119;51.788;8.824;2023-02-28T03:03:24;101459.09;;;-1.07;71.80
74613;BME280;63119;51.788;8.824;2023-02-28T03:06:00;101470.38;;;-0.96;71.00
74613;BME280;63119;51.788;8.824;2023-02-28T03:08:28;101470.34;;;-1.10;71.37
74613;BME280;63119;51.788;8.824;2023-02-28T03:10:59;101476.38;;;-1.22;71.45
74613;BME280;63119;51.788;8.824;2023-02-28T03:16:27;101472.84;;;-1.36;72.42
74613;BME280;63119;51.788;8.824;2023-02-28T03:19:13;101472.00;;;-1.24;72.11
74613;BME280;63119;51.788;8.824;2023-02-28T03:26:39;101472.88;;;-1.24;72.02
74613;BME280;63119;51.788;8.824;2023-02-28T03:29:17;101476.28;;;-1.40;71.85
74613;BME280;63119;51.788;8.824;2023-02-28T03:31:52;101477.88;;;-1.69;73.16
74613;BME280;63119;51.788;8.824;2023-02-28T03:34:24;101476.16;;;-1.66;73.41
74613;BME280;63119;51.788;8.824;2023-02-28T03:36:55;101476.97;;;-1.74;73.52
74613;BME280;63119;51.788;8.824;2023-02-28T03:39:28;101470.94;;;-1.72;73.28
74613;BME280;63119;51.788;8.824;2023-02-28T03:42:08;101475.28;;;-1.71;73.42
74613;BME280;63119;51.788;8.824;2023-02-28T03:44:38;101468.38;;;-1.64;73.35
74613;BME280;63119;51.788;8.824;2023-02-28T03:47:09;101473.63;;;-1.56;72.58
74613;BME280;63119;51.788;8.824;2023-02-28T03:49:40;101464.13;;;-1.53;72.55
74613;BME280;63119;51.788;8.824;2023-02-28T03:52:12;101472.81;;;-1.46;71.73
74613;BME280;63119;51.788;8.824;2023-02-28T03:54:48;101465.72;;;-1.73;72.02
74613;BME280;63119;51.788;8.824;2023-02-28T03:57:23;101468.25;;;-1.82;72.83
74613;BME280;63119;51.788;8.824;2023-02-28T03:59:56;101469.84;;;-2.05;74.18
74613;BME280;63119;51.788;8.824;2023-02-28T04:02:24;101470.75;;;-1.97;73.76
74613;BME280;63119;51.788;8.824;2023-02-28T04:04:50;101469.94;;;-1.98;74.23
74613;BME280;63119;51.788;8.824;2023-02-28T04:07:16;101465.53;;;-2.03;73.53
74613;BME280;63119;51.788;8.824;2023-02-28T04:09:42;101475.06;;;-2.04;73.66
74613;BME280;63119;51.788;8.824;2023-02-28T04:12:08;101471.59;;;-2.04;74.84
74613;BME280;63119;51.788;8.824;2023-02-28T04:14:33;101470.00;;;-1.84;74.56
74613;BME280;63119;51.788;8.824;2023-02-28T04:16:58;101469.19;;;-1.77;73.46
74613;BME280;63119;51.788;8.824;2023-02-28T04:19:24;101470.75;;;-1.97;73.51
74613;BME280;63119;51.788;8.824;2023-02-28T04:21:50;101473.28;;;-2.09;73.80
74613;BME280;63119;51.788;8.824;2023-02-28T04:24:21;101466.41;;;-2.07;73.41
74613;BME280;63119;51.788;8.824;2023-02-28T04:26:50;101473.38;;;-1.94;72.98
74613;BME280;63119;51.788;8.824;2023-02-28T04:29:20;101469.88;;;-2.02;74.13
74613;BME280;63119;51.788;8.824;2023-02-28T04:31:46;101463.88;;;-1.95;73.71
74613;BME280;63119;51.788;8.824;2023-02-28T04:34:11;101475.09;;;-2.01;74.48
74613;BME280;63119;51.788;8.824;2023-02-28T04:36:37;101471.66;;;-1.98;73.91
74613;BME280;63119;51.788;8.824;2023-02-28T04:39:02;101477.59;;;-2.11;73.10
74613;BME280;63119;51.788;8.824;2023-02-28T04:41:29;101469.84;;;-2.10;73.61
74613;BME280;63119;51.788;8.824;2023-02-28T04:43:54;101475.13;;;-1.95;73.12
74613;BME280;63119;51.788;8.824;2023-02-28T04:46:20;101475.88;;;-2.09;73.99
74613;BME280;63119;51.788;8.824;2023-02-28T04:48:46;101481.81;;;-2.26;74.56
74613;BME280;63119;51.788;8.824;2023-02-28T04:51:13;101478.41;;;-2.15;73.92
74613;BME280;63119;51.788;8.824;2023-02-28T04:53:40;101481.06;;;-2.06;73.13
74613;BME280;63119;51.788;8.824;2023-02-28T04:56:06;101478.50;;;-2.03;73.35
74613;BME280;63119;51.788;8.824;2023-02-28T04:58:33;101475.13;;;-1.98;73.24
74613;BME280;63119;51.788;8.824;2023-02-28T05:01:03;101473.34;;;-1.97;73.41
74613;BME280;63119;51.788;8.824;2023-02-28T05:03:28;101469.09;;;-1.89;73.36
74613;BME280;63119;51.788;8.824;2023-02-28T05:05:54;101479.41;;;-2.01;73.01
74613;BME280;63119;51.788;8.824;2023-02-28T05:08:19;101476.69;;;-2.15;73.59
74613;BME280;63119;51.788;8.824;2023-02-28T05:10:44;101473.25;;;-2.12;73.50
74613;BME280;63119;51.788;8.824;2023-02-28T05:13:13;101482.81;;;-2.08;73.05
74613;BME280;63119;51.788;8.824;2023-02-28T05:15:38;101478.50;;;-2.08;72.62
74613;BME280;63119;51.788;8.824;2023-02-28T05:18:03;101475.84;;;-2.12;72.74
74613;BME280;63119;51.788;8.824;2023-02-28T05:20:29;101481.03;;;-2.12;73.36
74613;BME280;63119;51.788;8.824;2023-02-28T05:22:54;101482.78;;;-2.11;73.43
74613;BME280;63119;51.788;8.824;2023-02-28T05:25:21;101470.69;;;-2.09;73.09
74613;BME280;63119;51.788;8.824;2023-02-28T05:27:48;101479.44;;;-1.98;73.36
74613;BME280;63119;51.788;8.824;2023-02-28T05:30:14;101474.19;;;-2.04;73.21
74613;BME280;63119;51.788;8.824;2023-02-28T05:32:40;101482.06;;;-1.89;73.02
74613;BME280;63119;51.788;8.824;2023-02-28T05:35:10;101482.06;;;-1.91;72.29
74613;BME280;63119;51.788;8.824;2023-02-28T05:37:35;101478.56;;;-1.99;72.89
74613;BME280;63119;51.788;8.824;2023-02-28T05:40:02;101487.28;;;-1.85;72.32
74613;BME280;63119;51.788;8.824;2023-02-28T05:42:31;101485.41;;;-2.05;73.24
74613;BME280;63119;51.788;8.824;2023-02-28T05:44:56;101491.31;;;-2.25;73.88
74613;BME280;63119;51.788;8.824;2023-02-28T05:47:21;101491.34;;;-2.18;74.40
74613;BME280;63119;51.788;8.824;2023-02-28T05:49:46;101494.88;;;-2.13;73.75
74613;BME280;63119;51.788;8.824;2023-02-28T05:52:12;101494.06;;;-2.05;73.76
74613;BME280;63119;51.788;8.824;2023-02-28T05:54:37;101491.47;;;-2.03;72.68
74613;BME280;63119;51.788;8.824;2023-02-28T05:57:02;101491.50;;;-1.97;72.34
74613;BME280;63119;51.788;8.824;2023-02-28T05:59:27;101493.09;;;-2.17;72.72
74613;BME280;63119;51.788;8.824;2023-02-28T06:01:53;101499.16;;;-2.17;72.92
74613;BME280;63119;51.788;8.824;2023-02-28T06:04:19;101494.81;;;-2.21;73.15
74613;BME280;63119;51.788;8.824;2023-02-28T06:06:46;101493.97;;;-2.17;73.05
74613;BME280;63119;51.788;8.824;2023-02-28T06:09:12;101495.75;;;-2.13;73.26
74613;BME280;63119;51.788;8.824;2023-02-28T06:11:37;101497.69;;;-1.80;78.43
74613;BME280;63119;51.788;8.824;2023-02-28T06:14:03;101498.34;;;-2.11;73.34
74613;BME280;63119;51.788;8.824;2023-02-28T06:16:30;101492.31;;;-2.09;74.84
74613;BME280;63119;51.788;8.824;2023-02-28T06:19:01;101503.53;;;-2.11;73.78
74613;BME280;63119;51.788;8.824;2023-02-28T06:21:28;101508.81;;;-2.01;75.31
74613;BME280;63119;51.788;8.824;2023-02-28T06:23:53;101507.72;;;-2.27;74.74
74613;BME280;63119;51.788;8.824;2023-02-28T06:26:19;101507.00;;;-2.06;74.12
74613;BME280;63119;51.788;8.824;2023-02-28T06:28:44;101513.06;;;-2.06;73.97
74613;BME280;63119;51.788;8.824;2023-02-28T06:31:12;101513.91;;;-2.11;73.65
74613;BME280;63119;51.788;8.824;2023-02-28T06:33:39;101519.94;;;-2.14;74.16
74613;BME280;63119;51.788;8.824;2023-02-28T06:36:06;101515.56;;;-2.19;74.50
74613;BME280;63119;51.788;8.824;2023-02-28T06:38:32;101521.69;;;-2.11;73.82
74613;BME280;63119;51.788;8.824;2023-02-28T06:40:59;101518.25;;;-2.06;73.42
74613;BME280;63119;51.788;8.824;2023-02-28T06:43:27;101519.50;;;-1.48;71.88
74613;BME280;63119;51.788;8.824;2023-02-28T06:45:57;101526.59;;;-1.14;70.37
74613;BME280;63119;51.788;8.824;2023-02-28T06:48:22;101521.59;;;-0.53;68.90
74613;BME280;63119;51.788;8.824;2023-02-28T06:50:48;101519.75;;;0.67;65.19
74613;BME280;63119;51.788;8.824;2023-02-28T06:53:13;101515.91;;;1.41;62.81
74613;BME280;63119;51.788;8.824;2023-02-28T06:55:39;101523.66;;;2.53;59.41
74613;BME280;63119;51.788;8.824;2023-02-28T06:58:05;101527.53;;;2.14;59.49
74613;BME280;63119;51.788;8.824;2023-02-28T07:00:43;101532.69;;;0.93;61.82
74613;BME280;63119;51.788;8.824;2023-02-28T07:03:09;101522.97;;;2.38;58.70
74613;BME280;63119;51.788;8.824;2023-02-28T07:05:36;101523.47;;;4.90;52.02
74613;BME280;63119;51.788;8.824;2023-02-28T07:08:03;101531.31;;;6.42;47.36
74613;BME280;63119;51.788;8.824;2023-02-28T07:10:30;101523.97;;;6.87;45.01
74613;BME280;63119;51.788;8.824;2023-02-28T07:12:55;101530.13;;;7.74;42.92
74613;BME280;63119;51.788;8.824;2023-02-28T07:15:20;101528.59;;;8.45;42.71
74613;BME280;63119;51.788;8.824;2023-02-28T07:17:45;101525.63;;;9.27;39.64
74613;BME280;63119;51.788;8.824;2023-02-28T07:20:11;101532.25;;;9.60;39.13
74613;BME280;63119;51.788;8.824;2023-02-28T07:22:36;101531.53;;;9.78;38.22
74613;BME280;63119;51.788;8.824;2023-02-28T07:25:02;101530.94;;;10.56;37.13
74613;BME280;63119;51.788;8.824;2023-02-28T07:27:27;101529.75;;;10.63;36.05
74613;BME280;63119;51.788;8.824;2023-02-28T07:29:53;101530.47;;;10.46;36.86
74613;BME280;63119;51.788;8.824;2023-02-28T07:32:19;101536.50;;;10.50;35.64
74613;BME280;63119;51.788;8.824;2023-02-28T07:34:44;101543.28;;;11.72;34.31
74613;BME280;63119;51.788;8.824;2023-02-28T07:37:10;101534.00;;;10.67;35.51
74613;BME280;63119;51.788;8.824;2023-02-28T07:39:36;101534.19;;;10.42;35.70
74613;BME280;63119;51.788;8.824;2023-02-28T07:42:04;101538.03;;;10.75;36.07
74613;BME280;63119;51.788;8.824;2023-02-28T07:44:31;101533.09;;;8.93;39.56
74613;BME280;63119;51.788;8.824;2023-02-28T07:46:56;101533.84;;;9.86;37.89
74613;BME280;63119;51.788;8.824;2023-02-28T07:49:21;101528.31;;;11.71;34.04
74613;BME280;63119;51.788;8.824;2023-02-28T07:51:47;101530.47;;;10.46;35.76
74613;BME280;63119;51.788;8.824;2023-02-28T07:54:12;101530.94;;;11.15;35.25
74613;BME280;63119;51.788;8.824;2023-02-28T07:56:37;101536.72;;;10.45;36.51
74613;BME280;63119;51.788;8.824;2023-02-28T07:59:02;101531.41;;;10.65;35.77
74613;BME280;63119;51.788;8.824;2023-02-28T08:01:28;101530.69;;;10.82;35.61
74613;BME280;63119;51.788;8.824;2023-02-28T08:03:53;101532.25;;;8.91;38.12
74613;BME280;63119;51.788;8.824;2023-02-28T08:06:22;101531.53;;;7.28;40.68
74613;BME280;63119;51.788;8.824;2023-02-28T08:08:48;101525.00;;;6.17;42.93
74613;BME280;63119;51.788;8.824;2023-02-28T08:11:14;101530.91;;;5.51;45.52
74613;BME280;63119;51.788;8.824;2023-02-28T08:13:39;101531.50;;;5.25;46.04
74613;BME280;63119;51.788;8.824;2023-02-28T08:16:05;101540.25;;;5.24;46.58
74613;BME280;63119;51.788;8.824;2023-02-28T08:18:32;101534.41;;;5.12;45.39
74613;BME280;63119;51.788;8.824;2023-02-28T08:20:57;101540.50;;;4.69;46.64
74613;BME280;63119;51.788;8.824;2023-02-28T08:23:22;101539.16;;;4.47;48.17
74613;BME280;63119;51.788;8.824;2023-02-28T08:25:55;101529.13;;;4.69;47.36
74613;BME280;63119;51.788;8.824;2023-02-28T08:28:21;101535.38;;;4.63;47.62
74613;BME280;63119;51.788;8.824;2023-02-28T08:30:46;101539.84;;;4.58;48.03
74613;BME280;63119;51.788;8.824;2023-02-28T08:33:12;101532.78;;;4.62;48.47
74613;BME280;63119;51.788;8.824;2023-02-28T08:35:37;101536.78;;;4.81;47.17
74613;BME280;63119;51.788;8.824;2023-02-28T08:38:02;101537.47;;;5.32;46.89
74613;BME280;63119;51.788;8.824;2023-02-28T08:40:28;101529.31;;;5.82;47.07
74613;BME280;63119;51.788;8.824;2023-02-28T08:42:53;101534.50;;;5.84;46.51
74613;BME280;63119;51.788;8.824;2023-02-28T08:45:18;101527.31;;;6.29;45.08
74613;BME280;63119;51.788;8.824;2023-02-28T08:47:43;101540.28;;;6.01;44.03
74613;BME280;63119;51.788;8.824;2023-02-28T08:50:09;101535.91;;;6.98;43.43
74613;BME280;63119;51.788;8.824;2023-02-28T08:52:34;101533.94;;;7.63;42.91
74613;BME280;63119;51.788;8.824;2023-02-28T08:55:00;101533.25;;;7.85;41.07
74613;BME280;63119;51.788;8.824;2023-02-28T08:57:25;101527.06;;;7.30;41.97
74613;BME280;63119;51.788;8.824;2023-02-28T08:59:53;101517.44;;;7.85;41.21
74613;BME280;63119;51.788;8.824;2023-02-28T09:02:18;101526.84;;;7.38;41.18
74613;BME280;63119;51.788;8.824;2023-02-28T09:04:43;101530.28;;;7.40;41.93
74613;BME280;63119;51.788;8.824;2023-02-28T09:07:11;101533.28;;;6.98;42.62
74613;BME280;63119;51.788;8.824;2023-02-28T09:09:36;101537.13;;;6.21;43.47
74613;BME280;63119;51.788;8.824;2023-02-28T09:12:02;101540.63;;;5.84;43.56
74613;BME280;63119;51.788;8.824;2023-02-28T09:14:28;101535.53;;;5.78;44.05
74613;BME280;63119;51.788;8.824;2023-02-28T09:16:53;101546.53;;;5.95;44.59
74613;BME280;63119;51.788;8.824;2023-02-28T09:19:18;101536.34;;;5.43;45.31
74613;BME280;63119;51.788;8.824;2023-02-28T09:21:44;101541.13;;;5.23;46.28
74613;BME280;63119;51.788;8.824;2023-02-28T09:24:09;101537.19;;;5.04;46.94
74613;BME280;63119;51.788;8.824;2023-02-28T09:26:37;101541.25;;;5.19;46.83
74613;BME280;63119;51.788;8.824;2023-02-28T09:29:02;101534.91;;;5.29;46.65
74613;BME280;63119;51.788;8.824;2023-02-28T09:31:29;101531.81;;;5.10;45.77
74613;BME280;63119;51.788;8.824;2023-02-28T09:33:56;101545.75;;;5.12;47.23
74613;BME280;63119;51.788;8.824;2023-02-28T09:36:23;101540.94;;;5.32;46.32
74613;BME280;63119;51.788;8.824;2023-02-28T09:38:49;101559.56;;;4.77;48.40
74613;BME280;63119;51.788;8.824;2023-02-28T09:41:24;101554.59;;;4.62;47.84
74613;BME280;63119;51.788;8.824;2023-02-28T09:43:54;101561.06;;;4.45;48.18
74613;BME280;63119;51.788;8.824;2023-02-28T09:46:28;101552.94;;;4.09;50.66
74613;BME280;63119;51.788;8.824;2023-02-28T09:48:56;101564.13;;;4.19;50.84
74613;BME280;63119;51.788;8.824;2023-02-28T09:51:26;101556.16;;;4.25;51.72
74613;BME280;63119;51.788;8.824;2023-02-28T09:53:53;101552.16;;;4.04;52.07
74613;BME280;63119;51.788;8.824;2023-02-28T09:56:28;101549.81;;;4.38;51.24
74613;BME280;63119;51.788;8.824;2023-02-28T09:58:57;101557.06;;;4.24;51.06
74613;BME280;63119;51.788;8.824;2023-02-28T10:10:17;101559.72;;;4.21;52.89
74613;BME280;63119;51.788;8.824;2023-02-28T10:12:45;101553.28;;;3.88;53.98
74613;BME280;63119;51.788;8.824;2023-02-28T10:15:16;101552.38;;;4.43;51.40
74613;BME280;63119;51.788;8.824;2023-02-28T10:17:45;101553.00;;;4.06;51.92
74613;BME280;63119;51.788;8.824;2023-02-28T10:20:16;101552.44;;;4.85;52.09
74613;BME280;63119;51.788;8.824;2023-02-28T10:23:20;101548.81;;;5.32;50.73
74613;BME280;63119;51.788;8.824;2023-02-28T10:25:52;101549.78;;;5.68;48.99
74613;BME280;63119;51.788;8.824;2023-02-28T10:28:19;101545.44;;;5.67;49.47
74613;BME280;63119;51.788;8.824;2023-02-28T10:30:50;101548.13;;;5.24;50.62
74613;BME280;63119;51.788;8.824;2023-02-28T10:33:30;101548.72;;;5.37;52.04
74613;BME280;63119;51.788;8.824;2023-02-28T10:35:56;101541.38;;;5.91;51.22
74613;BME280;63119;51.788;8.824;2023-02-28T10:38:33;101547.72;;;5.81;50.42
74613;BME280;63119;51.788;8.824;2023-02-28T10:41:13;101539.81;;;6.19;49.94
74613;BME280;63119;51.788;8.824;2023-02-28T10:43:40;101536.81;;;5.22;50.93
74613;BME280;63119;51.788;8.824;2023-02-28T10:48:37;101529.88;;;5.58;51.16
74613;BME280;63119;51.788;8.824;2023-02-28T10:51:05;101525.44;;;6.32;50.24
74613;BME280;63119;51.788;8.824;2023-02-28T10:53:49;101525.50;;;6.63;50.06
74613;BME280;63119;51.788;8.824;2023-02-28T10:56:20;101521.13;;;7.24;48.78
74613;BME280;63119;51.788;8.824;2023-02-28T11:03:56;101523.50;;;6.40;47.36
74613;BME280;63119;51.788;8.824;2023-02-28T11:06:25;101521.19;;;5.93;48.47
74613;BME280;63119;51.788;8.824;2023-02-28T11:08:54;101521.88;;;6.67;47.51
74613;BME280;63119;51.788;8.824;2023-02-28T11:11:21;101518.53;;;5.94;47.74
74613;BME280;63119;51.788;8.824;2023-02-28T11:13:50;101520.16;;;6.97;47.60
74613;BME280;63119;51.788;8.824;2023-02-28T11:16:16;101513.69;;;6.47;48.47
74613;BME280;63119;51.788;8.824;2023-02-28T11:18:51;101518.31;;;6.02;48.02
74613;BME280;63119;51.788;8.824;2023-02-28T11:21:27;101512.91;;;5.73;48.37
74613;BME280;63119;51.788;8.824;2023-02-28T11:24:24;101512.75;;;5.42;50.87
74613;BME280;63119;51.788;8.824;2023-02-28T11:26:51;101521.94;;;5.60;50.42
74613;BME280;63119;51.788;8.824;2023-02-28T11:29:22;101511.03;;;5.01;51.15
74613;BME280;63119;51.788;8.824;2023-02-28T11:34:27;101507.47;;;5.02;50.55
74613;BME280;63119;51.788;8.824;2023-02-28T11:36:55;101507.41;;;5.46;49.38
74613;BME280;63119;51.788;8.824;2023-02-28T11:39:22;101503.91;;;5.06;49.41
74613;BME280;63119;51.788;8.824;2023-02-28T11:41:58;101494.09;;;5.14;49.74
74613;BME280;63119;51.788;8.824;2023-02-28T11:47:18;101496.84;;;4.67;50.70
74613;BME280;63119;51.788;8.824;2023-02-28T11:52:56;101489.03;;;5.46;51.20
74613;BME280;63119;51.788;8.824;2023-02-28T11:55:30;101488.88;;;6.23;49.31
74613;BME280;63119;51.788;8.824;2023-02-28T12:03:39;101483.88;;;5.42;46.88
74613;BME280;63119;51.788;8.824;2023-02-28T12:11:32;101475.25;;;5.35;45.99
74613;BME280;63119;51.788;8.824;2023-02-28T12:16:48;101468.75;;;5.53;45.66
74613;BME280;63119;51.788;8.824;2023-02-28T12:19:41;101467.25;;;5.03;46.97
74613;BME280;63119;51.788;8.824;2023-02-28T12:27:38;101448.59;;;5.17;47.04
74613;BME280;63119;51.788;8.824;2023-02-28T12:32:35;101460.66;;;6.31;47.12
74613;BME280;63119;51.788;8.824;2023-02-28T12:35:12;101455.88;;;6.13;46.42
74613;BME280;63119;51.788;8.824;2023-02-28T12:37:41;101449.63;;;6.17;46.36
74613;BME280;63119;51.788;8.824;2023-02-28T12:40:13;101447.69;;;6.56;45.95
74613;BME280;63119;51.788;8.824;2023-02-28T12:42:42;101446.81;;;6.23;44.99
74613;BME280;63119;51.788;8.824;2023-02-28T12:45:25;101452.25;;;5.82;46.26
74613;BME280;63119;51.788;8.824;2023-02-28T12:47:58;101459.88;;;6.26;47.17
74613;BME280;63119;51.788;8.824;2023-02-28T12:50:26;101458.75;;;6.04;46.74
74613;BME280;63119;51.788;8.824;2023-02-28T12:53:02;101452.25;;;5.83;45.65
74613;BME280;63119;51.788;8.824;2023-02-28T12:56:15;101431.72;;;6.93;44.15
74613;BME280;63119;51.788;8.824;2023-02-28T12:58:47;101439.69;;;6.28;43.14
74613;BME280;63119;51.788;8.824;2023-02-28T13:07:30;101428.13;;;5.68;45.02
74613;BME280;63119;51.788;8.824;2023-02-28T13:09:59;101432.53;;;5.66;45.34
74613;BME280;63119;51.788;8.824;2023-02-28T13:12:27;101432.16;;;5.81;45.28
74613;BME280;63119;51.788;8.824;2023-02-28T13:15:22;101433.16;;;5.77;43.97
74613;BME280;63119;51.788;8.824;2023-02-28T13:17:54;101412.50;;;6.29;43.95
74613;BME280;63119;51.788;8.824;2023-02-28T13:20:24;101419.69;;;5.53;44.40
74613;BME280;63119;51.788;8.824;2023-02-28T13:22:52;101408.69;;;5.39;45.33
74613;BME280;63119;51.788;8.824;2023-02-28T13:27:58;101409.81;;;5.65;44.80
74613;BME280;63119;51.788;8.824;2023-02-28T13:33:32;101402.91;;;6.57;43.30
74613;BME280;63119;51.788;8.824;2023-02-28T13:36:08;101403.25;;;6.47;43.06
74613;BME280;63119;51.788;8.824;2023-02-28T13:38:36;101407.47;;;6.22;44.01
74613;BME280;63119;51.788;8.824;2023-02-28T13:57:12;101387.72;;;6.69;43.94
74613;BME280;63119;51.788;8.824;2023-02-28T14:05:21;101384.97;;;6.42;44.56
74613;BME280;63119;51.788;8.824;2023-02-28T14:07:53;101389.31;;;6.13;44.74
74613;BME280;63119;51.788;8.824;2023-02-28T14:10:26;101392.50;;;5.91;44.75
74613;BME280;63119;51.788;8.824;2023-02-28T14:12:59;101386.06;;;6.03;44.95
74613;BME280;63119;51.788;8.824;2023-02-28T14:18:32;101378.91;;;6.40;45.20
74613;BME280;63119;51.788;8.824;2023-02-28T14:21:24;101375.31;;;6.43;44.22
74613;BME280;63119;51.788;8.824;2023-02-28T14:24:13;101377.50;;;6.27;43.21
74613;BME280;63119;51.788;8.824;2023-02-28T14:27:00;101376.88;;;6.19;44.50
74613;BME280;63119;51.788;8.824;2023-02-28T14:32:27;101378.69;;;5.83;44.60
74613;BME280;63119;51.788;8.824;2023-02-28T14:37:27;101379.94;;;5.69;44.93
74613;BME280;63119;51.788;8.824;2023-02-28T14:39:54;101372.53;;;5.84;44.04
74613;BME280;63119;51.788;8.824;2023-02-28T14:42:29;101369.31;;;6.07;43.80
74613;BME280;63119;51.788;8.824;2023-02-28T14:44:55;101362.81;;;6.20;44.02
74613;BME280;63119;51.788;8.824;2023-02-28T14:47:23;101363.38;;;6.31;43.76
74613;BME280;63119;51.788;8.824;2023-02-28T14:49:51;101362.72;;;5.59;44.24
74613;BME280;63119;51.788;8.824;2023-02-28T14:52:23;101354.22;;;5.47;45.16
74613;BME280;63119;51.788;8.824;2023-02-28T14:54:55;101352.44;;;5.83;44.96
74613;BME280;63119;51.788;8.824;2023-02-28T14:57:25;101362.56;;;5.65;45.06